createdAt,value
2019-02-05T00:02:12.596Z,57.17
2019-02-05T00:04:42.344Z,57.06
2019-02-05T00:07:12.112Z,56.94
2019-02-05T00:09:41.867Z,56.75
2019-02-05T00:12:11.619Z,56.49
2019-02-05T00:14:41.364Z,57.67
2019-02-05T00:17:11.140Z,56.90
2019-02-05T00:19:40.874Z,57.28
2019-02-05T00:22:10.656Z,57.52
2019-02-05T00:24:40.499Z,57.95
2019-02-05T00:27:10.268Z,58.55
2019-02-05T00:29:40.024Z,59.80
2019-02-05T00:32:09.740Z,59.28
2019-02-05T00:34:39.476Z,59.21
2019-02-05T00:37:09.225Z,60.06
2019-02-05T00:39:39.334Z,61.14
2019-02-05T00:42:09.091Z,61.70
2019-02-05T00:44:38.838Z,61.96
2019-02-05T00:47:08.593Z,62.28
2019-02-05T00:49:38.316Z,62.41
2019-02-05T00:52:08.095Z,63.63
2019-02-05T00:54:37.904Z,64.59
2019-02-05T00:57:07.653Z,65.15
2019-02-05T00:59:37.432Z,65.72
2019-02-05T01:02:07.195Z,65.45
2019-02-05T01:04:36.938Z,66.34
2019-02-05T01:07:06.862Z,65.92
2019-02-05T01:09:36.597Z,65.73
2019-02-05T01:12:06.425Z,66.62
2019-02-05T01:14:36.227Z,66.49
2019-02-05T01:17:06.001Z,66.22
2019-02-05T01:19:35.742Z,66.57
2019-02-05T01:22:05.785Z,66.96
2019-02-05T01:24:35.530Z,67.58
2019-02-05T01:27:05.319Z,67.39
2019-02-05T01:29:35.080Z,67.61
2019-02-05T01:32:04.845Z,68.34
2019-02-05T01:34:34.586Z,69.32
2019-02-05T01:37:04.469Z,69.08
2019-02-05T01:39:34.214Z,69.53
2019-02-05T01:42:03.982Z,70.52
2019-02-05T01:44:33.730Z,71.31
2019-02-05T01:47:03.506Z,70.75
2019-02-05T01:49:33.255Z,71.23
2019-02-05T01:52:03.016Z,71.86
2019-02-05T01:54:32.795Z,72.50
2019-02-05T01:57:02.543Z,72.56
2019-02-05T01:59:33.389Z,73.33
2019-02-05T02:02:03.320Z,73.70
2019-02-05T02:04:33.467Z,73.99
2019-02-05T02:07:03.385Z,74.21
2019-02-05T02:09:33.169Z,74.74
2019-02-05T02:12:04.779Z,74.77
2019-02-05T02:14:34.562Z,74.91
2019-02-05T02:17:04.454Z,74.63
2019-02-05T02:19:34.300Z,74.98
2019-02-05T02:22:04.037Z,75.03
2019-02-05T02:24:33.810Z,74.66
2019-02-05T02:27:03.552Z,74.10
2019-02-05T02:29:33.407Z,73.94
2019-02-05T02:32:03.171Z,74.40
2019-02-05T02:34:32.966Z,74.35
2019-02-05T02:37:02.703Z,74.72
2019-02-05T02:39:32.508Z,74.35
2019-02-05T02:42:02.229Z,74.04
2019-02-05T02:44:32.004Z,74.44
2019-02-05T02:47:01.929Z,74.17
2019-02-05T02:49:31.731Z,74.09
2019-02-05T02:52:01.652Z,73.87
2019-02-05T02:54:31.409Z,74.02
2019-02-05T02:57:04.834Z,74.59
2019-02-05T02:59:32.644Z,74.32
2019-02-05T03:02:02.772Z,74.62
2019-02-05T03:04:32.610Z,73.91
2019-02-05T03:07:02.350Z,74.17
2019-02-05T03:09:33.201Z,73.63
2019-02-05T03:12:02.939Z,74.29
2019-02-05T03:14:32.719Z,74.11
2019-02-05T03:17:02.870Z,73.96
2019-02-05T03:19:32.615Z,74.31
2019-02-05T03:22:02.400Z,74.29
2019-02-05T03:24:32.156Z,74.48
2019-02-05T03:27:01.926Z,74.59
2019-02-05T03:29:31.797Z,74.41
2019-02-05T03:32:01.544Z,74.57
2019-02-05T03:34:32.661Z,74.50
2019-02-05T03:37:02.422Z,74.56
2019-02-05T03:39:32.213Z,74.55
2019-02-05T03:42:02.112Z,74.34
2019-02-05T03:44:31.913Z,74.59
2019-02-05T03:47:01.666Z,74.19
2019-02-05T03:49:31.818Z,74.39
2019-02-05T03:52:03.996Z,74.33
2019-02-05T03:54:52.262Z,74.22
2019-02-05T03:57:31.650Z,74.36
2019-02-05T04:00:19.731Z,74.44
2019-02-05T04:02:58.602Z,74.00
2019-02-05T04:06:04.671Z,73.53
2019-02-05T04:08:52.118Z,74.14
2019-02-05T04:11:39.994Z,74.15
2019-02-05T04:14:15.818Z,74.05
2019-02-05T04:16:54.824Z,74.12
2019-02-05T04:19:33.350Z,73.63
2019-02-05T04:22:12.092Z,74.01
2019-02-05T04:24:50.755Z,74.02
2019-02-05T04:27:44.962Z,73.53
2019-02-05T04:30:29.820Z,73.92
2019-02-05T04:33:17.406Z,74.08
2019-02-05T04:35:59.379Z,74.12
2019-02-05T04:38:41.157Z,73.81
2019-02-05T04:41:38.614Z,73.73
2019-02-05T04:44:35.810Z,73.53
2019-02-05T04:47:09.196Z,73.84
2019-02-05T04:49:50.829Z,74.20
2019-02-05T04:52:29.413Z,73.94
2019-02-05T04:55:26.778Z,73.90
2019-02-05T04:58:08.683Z,74.07
2019-02-05T05:00:44.663Z,73.75
2019-02-05T05:03:17.876Z,73.89
2019-02-05T05:05:56.866Z,73.76
2019-02-05T05:08:44.710Z,73.94
2019-02-05T05:11:14.825Z,73.95
2019-02-05T05:13:44.597Z,74.16
2019-02-05T05:16:14.351Z,73.99
2019-02-05T05:18:44.121Z,74.14
2019-02-05T05:21:13.857Z,74.25
2019-02-05T05:23:45.168Z,74.06
2019-02-05T05:26:15.071Z,74.11
2019-02-05T05:28:44.837Z,74.04
2019-02-05T05:31:14.573Z,74.28
2019-02-05T05:33:44.365Z,74.17
2019-02-05T05:36:14.113Z,74.39
2019-02-05T05:38:43.874Z,74.19
2019-02-05T05:41:13.697Z,74.45
2019-02-05T05:43:43.473Z,74.13
2019-02-05T05:46:13.215Z,74.55
2019-02-05T05:48:42.967Z,74.44
2019-02-05T05:51:13.794Z,74.65
2019-02-05T05:53:43.630Z,74.85
2019-02-05T05:56:13.380Z,74.80
2019-02-05T05:58:43.142Z,74.74
2019-02-05T06:01:12.916Z,74.72
2019-02-05T06:03:43.798Z,74.76
2019-02-05T06:06:13.570Z,75.04
2019-02-05T06:08:43.312Z,75.21
2019-02-05T06:11:13.151Z,75.41
2019-02-05T06:13:43.072Z,75.12
2019-02-05T06:16:12.922Z,75.63
2019-02-05T06:18:42.674Z,75.56
2019-02-05T06:21:13.738Z,75.95
2019-02-05T06:23:43.669Z,75.69
2019-02-05T06:26:13.517Z,76.17
2019-02-05T06:28:43.441Z,75.97
2019-02-05T06:31:13.253Z,75.99
2019-02-05T06:33:43.164Z,76.09
2019-02-05T06:36:13.089Z,76.24
2019-02-05T06:38:44.758Z,76.03
2019-02-05T06:41:14.725Z,76.26
2019-02-05T06:43:44.662Z,76.52
2019-02-05T06:46:14.432Z,76.83
2019-02-05T06:48:44.181Z,77.17
2019-02-05T06:51:13.990Z,77.13
2019-02-05T06:53:43.782Z,77.28
2019-02-05T06:56:13.523Z,77.55
2019-02-05T06:58:46.623Z,77.45
2019-02-05T07:01:14.909Z,77.35
2019-02-05T07:03:44.677Z,77.07
2019-02-05T07:06:14.452Z,77.71
2019-02-05T07:08:44.201Z,77.85
2019-02-05T07:11:13.966Z,77.51
2019-02-05T07:13:43.970Z,77.50
2019-02-05T07:16:13.739Z,77.83
2019-02-05T07:18:43.474Z,77.68
2019-02-05T07:21:13.237Z,77.66
2019-02-05T07:23:43.004Z,77.93
2019-02-05T07:26:12.759Z,77.76
2019-02-05T07:28:42.713Z,77.68
2019-02-05T07:31:12.493Z,77.39
2019-02-05T07:33:42.247Z,76.99
2019-02-05T07:36:12.014Z,77.59
2019-02-05T07:38:41.761Z,77.37
2019-02-05T07:41:11.536Z,77.26
2019-02-05T07:43:41.292Z,77.36
2019-02-05T07:46:11.255Z,77.45
2019-02-05T07:48:41.004Z,77.35
2019-02-05T07:51:10.774Z,77.30
2019-02-05T07:53:40.534Z,77.17
2019-02-05T07:56:12.894Z,77.17
2019-02-05T07:58:41.779Z,77.26
2019-02-05T08:04:08.319Z,77.06
2019-02-05T08:06:38.093Z,76.84
2019-02-05T08:09:08.574Z,76.97
2019-02-05T08:11:41.241Z,76.83
2019-02-05T08:14:10.054Z,76.86
2019-02-05T08:16:39.804Z,77.05
2019-02-05T08:19:09.539Z,77.00
2019-02-05T08:21:39.318Z,76.95
2019-02-05T08:24:09.095Z,76.65
2019-02-05T08:26:38.845Z,76.80
2019-02-05T08:29:08.868Z,76.86
2019-02-05T08:31:38.634Z,76.74
2019-02-05T08:34:08.388Z,76.70
2019-02-05T08:36:38.201Z,76.96
2019-02-05T08:39:08.761Z,76.88
2019-02-05T08:41:38.601Z,77.38
2019-02-05T08:44:08.350Z,77.60
2019-02-05T08:46:38.101Z,77.32
2019-02-05T08:49:07.926Z,77.39
2019-02-05T08:51:37.676Z,77.40
2019-02-05T08:54:08.386Z,77.49
2019-02-05T08:56:38.156Z,77.76
2019-02-05T08:59:07.903Z,77.66
2019-02-05T09:01:37.873Z,77.98
2019-02-05T09:04:07.597Z,77.99
2019-02-05T09:06:37.373Z,77.87
2019-02-05T09:09:07.752Z,77.87
2019-02-05T09:11:37.580Z,77.76
2019-02-05T09:14:11.052Z,77.80
2019-02-05T09:16:38.814Z,77.90
2019-02-05T09:19:08.560Z,77.87
2019-02-05T09:21:38.325Z,77.79
2019-02-05T09:24:08.141Z,78.15
2019-02-05T09:26:37.908Z,77.67
2019-02-05T09:29:07.663Z,77.52
2019-02-05T09:31:37.441Z,78.20
2019-02-05T09:34:07.190Z,77.92
2019-02-05T09:36:37.117Z,77.42
2019-02-05T09:39:07.193Z,77.35
2019-02-05T09:41:37.017Z,77.27
2019-02-05T09:44:06.805Z,77.12
2019-02-05T09:46:36.599Z,76.94
2019-02-05T09:49:06.611Z,76.77
2019-02-05T09:51:36.376Z,76.59
2019-02-05T09:54:06.121Z,76.35
2019-02-05T09:56:35.894Z,76.62
2019-02-05T09:59:05.629Z,76.45
2019-02-05T10:01:35.387Z,76.49
2019-02-05T10:04:05.484Z,76.79
2019-02-05T10:06:35.260Z,76.51
2019-02-05T10:09:07.449Z,76.59
2019-02-05T10:11:37.206Z,76.33
2019-02-05T10:14:06.947Z,76.42
2019-02-05T10:16:36.722Z,76.66
2019-02-05T10:19:06.489Z,76.31
2019-02-05T10:21:36.283Z,76.65
2019-02-05T10:24:06.096Z,76.00
2019-02-05T10:26:35.858Z,76.08
2019-02-05T10:29:05.606Z,76.06
2019-02-05T10:31:35.372Z,75.94
2019-02-05T10:34:05.167Z,76.16
2019-02-05T10:36:34.921Z,76.03
2019-02-05T10:39:07.559Z,76.23
2019-02-05T10:41:37.324Z,76.41
2019-02-05T10:44:07.079Z,76.10
2019-02-05T10:46:36.854Z,75.93
2019-02-05T10:49:06.700Z,75.75
2019-02-05T10:51:36.651Z,75.79
2019-02-05T10:54:06.550Z,75.75
2019-02-05T10:56:36.401Z,76.11
2019-02-05T10:59:06.217Z,75.21
2019-02-05T11:01:36.008Z,75.37
2019-02-05T11:04:05.759Z,75.37
2019-02-05T11:06:35.913Z,74.91
2019-02-05T11:09:07.304Z,75.67
2019-02-05T11:11:37.083Z,75.37
2019-02-05T11:14:06.840Z,75.28
2019-02-05T11:16:36.602Z,75.38
2019-02-05T11:19:06.348Z,75.49
2019-02-05T11:21:36.452Z,74.98
2019-02-05T11:24:06.251Z,74.34
2019-02-05T11:26:36.780Z,74.72
2019-02-05T11:29:06.731Z,75.19
2019-02-05T11:31:36.598Z,75.10
2019-02-05T11:34:06.369Z,75.04
2019-02-05T11:36:36.180Z,75.47
2019-02-05T11:39:09.207Z,74.57
2019-02-05T11:41:38.946Z,74.80
2019-02-05T11:44:08.709Z,74.80
2019-02-05T11:46:38.442Z,74.98
2019-02-05T11:49:08.212Z,75.04
2019-02-05T11:51:37.976Z,75.22
2019-02-05T11:54:07.732Z,75.12
2019-02-05T11:56:37.490Z,75.12
2019-02-05T11:59:07.248Z,75.07
2019-02-05T12:01:39.023Z,74.94
2019-02-05T12:04:10.062Z,74.54
2019-02-05T12:06:39.890Z,75.05
2019-02-05T12:09:18.961Z,75.19
2019-02-05T12:11:48.709Z,74.58
2019-02-05T12:14:18.714Z,74.71
2019-02-05T12:16:48.469Z,74.50
2019-02-05T12:19:18.272Z,74.69
2019-02-05T12:21:48.023Z,74.95
2019-02-05T12:24:17.809Z,74.75
2019-02-05T12:26:47.587Z,74.97
2019-02-05T12:29:17.337Z,75.19
2019-02-05T12:31:47.090Z,74.58
2019-02-05T12:34:16.906Z,74.58
2019-02-05T12:36:46.664Z,74.40
2019-02-05T12:39:17.761Z,74.41
2019-02-05T12:41:47.587Z,74.92
2019-02-05T12:44:17.359Z,74.50
2019-02-05T12:46:47.088Z,74.81
2019-02-05T12:49:16.852Z,74.68
2019-02-05T12:51:46.592Z,74.69
2019-02-05T12:54:16.754Z,74.54
2019-02-05T12:56:46.506Z,74.82
2019-02-05T12:59:16.285Z,74.71
2019-02-05T13:01:46.006Z,74.55
2019-02-05T13:04:15.839Z,74.17
2019-02-05T13:06:45.577Z,74.31
2019-02-05T13:09:15.348Z,74.92
2019-02-05T13:11:45.201Z,74.81
2019-02-05T13:14:15.034Z,74.96
2019-02-05T13:16:44.791Z,74.99
2019-02-05T13:19:14.580Z,75.06
2019-02-05T13:21:44.319Z,74.56
2019-02-05T13:24:16.565Z,74.61
2019-02-05T13:26:45.549Z,75.00
2019-02-05T13:29:15.374Z,74.92
2019-02-05T13:31:45.138Z,75.27
2019-02-05T13:34:14.994Z,75.22
2019-02-05T13:36:45.114Z,75.29
2019-02-05T13:39:14.917Z,74.95
2019-02-05T13:41:44.671Z,75.34
2019-02-05T13:44:14.447Z,75.46
2019-02-05T13:46:44.185Z,75.33
2019-02-05T13:49:13.959Z,75.91
2019-02-05T13:51:43.697Z,75.80
2019-02-05T13:54:13.457Z,75.10
2019-02-05T13:56:43.182Z,75.36
2019-02-05T13:59:13.022Z,75.58
2019-02-05T14:01:44.682Z,75.56
2019-02-05T14:04:14.238Z,75.02
2019-02-05T14:06:43.973Z,75.11
2019-02-05T14:09:13.892Z,75.21
2019-02-05T14:11:43.640Z,74.87
2019-02-05T14:14:13.493Z,74.65
2019-02-05T14:16:43.249Z,74.27
2019-02-05T14:19:13.232Z,74.33
2019-02-05T14:21:42.958Z,74.18
2019-02-05T14:24:12.850Z,74.08
2019-02-05T14:26:42.612Z,74.30
2019-02-05T14:29:12.419Z,74.59
2019-02-05T14:31:42.181Z,74.84
2019-02-05T14:34:12.350Z,74.12
2019-02-05T14:36:42.099Z,74.02
2019-02-05T14:39:11.895Z,74.37
2019-02-05T14:41:41.747Z,74.22
2019-02-05T14:44:11.490Z,74.17
2019-02-05T14:46:41.227Z,74.15
2019-02-05T14:49:11.270Z,73.90
2019-02-05T14:51:41.018Z,73.65
2019-02-05T14:54:10.797Z,73.79
2019-02-05T14:56:40.556Z,73.89
2019-02-05T14:59:10.398Z,73.81
2019-02-05T15:01:43.197Z,73.54
2019-02-05T15:04:12.614Z,73.99
2019-02-05T15:06:42.402Z,73.37
2019-02-05T15:09:12.126Z,73.24
2019-02-05T15:11:41.882Z,73.59
2019-02-05T15:14:11.658Z,73.72
2019-02-05T15:16:42.660Z,73.28
2019-02-05T15:19:12.700Z,73.36
2019-02-05T15:21:42.429Z,73.54
2019-02-05T15:24:12.199Z,73.68
2019-02-05T15:26:41.949Z,72.93
2019-02-05T15:29:12.834Z,73.02
2019-02-05T15:31:53.920Z,73.56
2019-02-05T15:34:15.812Z,72.95
2019-02-05T15:36:46.326Z,73.17
2019-02-05T15:39:16.137Z,72.94
2019-02-05T15:41:45.919Z,73.19
2019-02-05T15:44:15.934Z,72.82
2019-02-05T15:46:45.719Z,72.32
2019-02-05T15:49:15.534Z,72.27
2019-02-05T15:51:46.269Z,72.17
2019-02-05T15:54:16.032Z,71.63
2019-02-05T15:56:45.794Z,71.84
2019-02-05T15:59:15.545Z,71.68
2019-02-05T16:01:45.342Z,72.10
2019-02-05T16:04:15.094Z,72.46
2019-02-05T16:06:44.888Z,72.70
2019-02-05T16:09:14.637Z,72.40
2019-02-05T16:11:44.406Z,72.08
2019-02-05T16:14:14.165Z,72.09
2019-02-05T16:16:43.976Z,72.32
2019-02-05T16:19:13.712Z,72.58
2019-02-05T16:21:44.453Z,72.37
2019-02-05T16:24:14.195Z,72.63
2019-02-05T16:26:44.343Z,72.68
2019-02-05T16:29:14.100Z,72.93
2019-02-05T16:31:43.867Z,73.45
2019-02-05T16:34:13.621Z,73.07
2019-02-05T16:36:43.415Z,73.11
2019-02-05T16:39:13.196Z,73.05
2019-02-05T16:41:43.255Z,73.35
2019-02-05T16:44:13.014Z,73.34
2019-02-05T16:46:43.865Z,73.42
2019-02-05T16:49:13.630Z,72.81
2019-02-05T16:51:43.397Z,73.14
2019-02-05T16:54:13.167Z,73.16
2019-02-05T16:56:43.004Z,73.01
2019-02-05T16:59:12.766Z,73.00
2019-02-05T17:01:42.521Z,73.02
2019-02-05T17:04:12.264Z,72.71
2019-02-05T17:06:42.042Z,72.74
2019-02-05T17:09:15.176Z,72.73
2019-02-05T17:11:44.958Z,72.95
2019-02-05T17:14:14.726Z,72.71
2019-02-05T17:16:44.529Z,72.88
2019-02-05T17:19:14.313Z,72.88
2019-02-05T17:21:44.067Z,72.81
2019-02-05T17:24:13.999Z,72.73
2019-02-05T17:26:43.808Z,72.68
2019-02-05T17:29:13.592Z,72.81
2019-02-05T17:31:43.388Z,72.63
2019-02-05T17:34:13.194Z,72.75
2019-02-05T17:36:42.968Z,72.85
2019-02-05T17:39:12.916Z,72.78
2019-02-05T17:41:42.742Z,72.88
2019-02-05T17:44:12.519Z,72.89
2019-02-05T17:46:42.360Z,72.88
2019-02-05T17:49:12.332Z,72.92
2019-02-05T17:51:42.050Z,73.33
2019-02-05T17:54:12.115Z,73.25
2019-02-05T17:56:41.902Z,73.31
2019-02-05T17:59:11.662Z,73.55
2019-02-05T18:01:41.427Z,73.40
2019-02-05T18:04:11.253Z,73.62
2019-02-05T18:06:41.045Z,73.23
2019-02-05T18:09:11.073Z,73.33
2019-02-05T18:11:40.851Z,73.16
2019-02-05T18:14:11.682Z,73.00
2019-02-05T18:16:41.549Z,73.28
2019-02-05T18:19:11.343Z,73.28
2019-02-05T18:21:41.116Z,73.41
2019-02-05T18:24:10.894Z,73.73
2019-02-05T18:26:40.771Z,74.16
2019-02-05T18:29:10.547Z,74.66
2019-02-05T18:31:40.408Z,74.26
2019-02-05T18:34:10.255Z,74.17
2019-02-05T18:36:40.418Z,74.18
2019-02-05T18:39:10.193Z,74.11
2019-02-05T18:41:40.943Z,74.08
2019-02-05T18:44:10.696Z,73.67
2019-02-05T18:46:40.481Z,73.35
2019-02-05T18:49:10.270Z,73.28
2019-02-05T18:51:41.177Z,73.30
2019-02-05T18:54:10.963Z,73.54
2019-02-05T18:56:40.749Z,73.49
2019-02-05T18:59:10.735Z,73.17
2019-02-05T19:01:40.465Z,73.34
2019-02-05T19:04:11.335Z,73.25
2019-02-05T19:06:41.108Z,73.45
2019-02-05T19:09:12.697Z,73.98
2019-02-05T19:11:42.487Z,73.96
2019-02-05T19:14:12.347Z,73.44
2019-02-05T19:16:42.089Z,73.43
2019-02-05T19:19:14.975Z,73.62
2019-02-05T19:21:43.631Z,73.75
2019-02-05T19:24:15.063Z,73.22
2019-02-05T19:26:45.763Z,72.84
2019-02-05T19:29:18.811Z,72.91
2019-02-05T19:31:47.012Z,72.70
2019-02-05T19:34:16.823Z,72.52
2019-02-05T19:36:46.577Z,72.01
2019-02-05T19:39:16.401Z,72.15
2019-02-05T19:41:46.276Z,72.15
2019-02-05T19:44:16.190Z,71.87
2019-02-05T19:46:50.517Z,71.75
2019-02-05T19:49:25.273Z,71.83
2019-02-05T19:51:55.010Z,71.80
2019-02-05T19:54:25.429Z,71.18
2019-02-05T19:56:55.150Z,71.78
2019-02-05T19:59:25.482Z,71.91
2019-02-05T20:01:55.209Z,71.62
2019-02-05T20:04:25.202Z,71.61
2019-02-05T20:06:54.965Z,71.52
2019-02-05T20:09:24.804Z,71.27
2019-02-05T20:11:54.547Z,71.59
2019-02-05T20:14:24.317Z,71.36
2019-02-05T20:16:54.089Z,71.28
2019-02-05T20:19:24.971Z,71.31
2019-02-05T20:21:54.877Z,71.29
2019-02-05T20:24:24.665Z,71.01
2019-02-05T20:26:54.407Z,71.09
2019-02-05T20:29:24.192Z,71.50
2019-02-05T20:31:53.936Z,71.77
2019-02-05T20:34:24.096Z,71.83
2019-02-05T20:36:54.576Z,71.67
2019-02-05T20:39:24.375Z,71.68
2019-02-05T20:41:54.483Z,71.28
2019-02-05T20:44:24.339Z,71.42
2019-02-05T20:46:54.186Z,71.40
2019-02-05T20:49:24.330Z,71.56
2019-02-05T20:51:54.097Z,71.68
2019-02-05T20:54:23.901Z,71.43
2019-02-05T20:56:53.664Z,71.49
2019-02-05T20:59:23.479Z,71.73
2019-02-05T21:01:56.124Z,71.72
2019-02-05T21:04:24.912Z,71.38
2019-02-05T21:06:54.780Z,71.36
2019-02-05T21:09:24.577Z,71.48
2019-02-05T21:11:54.361Z,71.39
2019-02-05T21:14:24.112Z,71.48
2019-02-05T21:16:54.000Z,71.46
2019-02-05T21:19:23.787Z,71.42
2019-02-05T21:21:53.879Z,71.83
2019-02-05T21:24:23.730Z,71.43
2019-02-05T21:26:53.479Z,71.70
2019-02-05T21:29:24.408Z,71.72
2019-02-05T21:31:54.134Z,71.89
2019-02-05T21:34:23.903Z,71.69
2019-02-05T21:36:53.889Z,71.62
2019-02-05T21:39:23.704Z,71.40
2019-02-05T21:41:53.472Z,71.60
2019-02-05T21:44:23.251Z,71.62
2019-02-05T21:46:53.022Z,71.78
2019-02-05T21:49:22.933Z,71.68
2019-02-05T21:51:52.855Z,71.42
2019-02-05T21:54:22.622Z,71.35
2019-02-05T21:56:52.376Z,71.03
2019-02-05T21:59:22.159Z,71.15
2019-02-05T22:01:51.923Z,71.01
2019-02-05T22:04:27.295Z,71.16
2019-02-05T22:06:53.253Z,71.16
2019-02-05T22:09:23.028Z,71.49
2019-02-05T22:11:52.898Z,71.68
2019-02-05T22:14:22.665Z,71.55
2019-02-05T22:16:52.479Z,71.47
2019-02-05T22:19:22.536Z,71.56
2019-02-05T22:21:52.303Z,71.51
2019-02-05T22:24:22.124Z,71.51
2019-02-05T22:26:51.889Z,71.83
2019-02-05T22:29:21.631Z,71.96
2019-02-05T22:31:51.401Z,72.08
2019-02-05T22:34:21.548Z,72.29
2019-02-05T22:36:51.339Z,71.27
2019-02-05T22:39:21.120Z,71.60
2019-02-05T22:41:50.860Z,71.99
2019-02-05T22:44:20.616Z,72.82
2019-02-05T22:46:50.755Z,73.17
2019-02-05T22:49:20.496Z,73.43
2019-02-05T22:51:50.551Z,73.00
2019-02-05T22:54:20.311Z,72.93
2019-02-05T22:56:50.847Z,73.12
2019-02-05T22:59:20.869Z,73.38
2019-02-05T23:01:50.712Z,73.65
2019-02-05T23:04:23.844Z,73.78
2019-02-05T23:06:59.875Z,73.02
2019-02-05T23:09:39.513Z,73.12
2019-02-05T23:12:27.720Z,73.05
2019-02-05T23:15:04.624Z,74.02
2019-02-05T23:17:34.399Z,73.78
2019-02-05T23:20:07.407Z,73.41
2019-02-05T23:22:37.250Z,73.13
2019-02-05T23:25:07.663Z,73.87
2019-02-05T23:27:37.364Z,73.49
2019-02-05T23:30:13.272Z,73.62
2019-02-05T23:32:43.051Z,73.94
2019-02-05T23:35:12.798Z,73.40
2019-02-05T23:37:42.556Z,73.15
2019-02-05T23:40:12.734Z,72.94
2019-02-05T23:42:42.489Z,72.89
2019-02-05T23:45:13.994Z,73.99
2019-02-05T23:47:43.802Z,74.01
2019-02-05T23:50:14.812Z,73.69
2019-02-05T23:52:44.861Z,73.78
2019-02-05T23:55:14.795Z,74.49
2019-02-05T23:57:44.611Z,74.11
